Sena Madureira, Brazil
Current Conditions -  °F | °C
As of 3:00 PM on Thursday 27 Nov 2014 (Local Time) from SBRB Reporting Station
Broken Clouds Broken Clouds  
Wind Chill: 88°   Ceiling: 10000
Heat Index: 96°   Visibility: 6mi
Dew Point: 73°   Wind: 2mph
Humidity: 62%   Direction: 300°WNW
Pressure: 29.77"   Gusts: NA
Location:  9.07°S, 68.66°W
Report Text: SBRB 271900Z 30002KT 9999 SCT030 BKN100 31/23 Q1008
Loading
Personal Weather Stations






























Interactive Weather Map New forecast layout! Learn more

10-Day Weather Forecast

Advertisements
Track Severe Weather on mobile